Orlando, Florida
Traffic Map
Current Weather Conditions
Orlando, Florida
Clear
Clear
65°
Feels Like: 65°
Wind Chill: 65° Ceiling: Unl
Heat Index: 65° Visibility: 10mi
Dew Point: 44° Wind: 9mph
Humidity: 47% Direction: 350° (N)
Pressure: 29.9in Gusts: 0mph
Raw Report DataKORL 061253Z 35008KT 10SM CLR 18/07 A2990 RMK AO2 SLP126 T01830067
Traffic Incident Summary
Active as of:
Severity:
Category:
InformationThere was an issue retrieving the traffic information for this location. Please try a different location or try again shortly.
Advertisements
Track Severe Weather on mobile